createdAt,value
2023-08-17T04:57:01.431Z,46.63
2023-08-17T04:59:29.299Z,48.73
2023-08-17T05:01:57.239Z,41.90
2023-08-17T05:04:25.178Z,42.87
2023-08-17T05:06:54.436Z,41.80
2023-08-17T05:09:22.354Z,42.67
2023-08-17T05:11:50.469Z,42.33
2023-08-17T05:14:18.586Z,41.40
2023-08-17T05:16:46.455Z,42.20
2023-08-17T05:22:15.272Z,41.20
2023-08-17T05:24:43.180Z,40.70
2023-08-17T05:27:12.203Z,44.07
2023-08-17T05:29:40.146Z,40.23
2023-08-17T05:32:08.163Z,40.30
2023-08-17T05:34:36.065Z,40.13
2023-08-17T05:37:04.077Z,40.00
2023-08-17T05:39:34.233Z,40.13
2023-08-17T05:42:03.968Z,41.50
2023-08-17T05:44:31.968Z,39.90
2023-08-17T05:46:59.823Z,40.33
2023-08-17T05:49:27.774Z,40.60
2023-08-17T05:51:55.920Z,40.40
2023-08-17T05:54:23.822Z,41.30
2023-08-17T05:56:53.041Z,39.87
2023-08-17T05:59:21.028Z,40.77
2023-08-17T06:01:49.182Z,39.73
2023-08-17T06:04:17.331Z,41.33
2023-08-17T06:06:45.222Z,40.07
2023-08-17T06:09:13.151Z,40.40
2023-08-17T06:11:41.261Z,41.63
2023-08-17T06:14:10.586Z,42.90
2023-08-17T06:16:38.514Z,43.30
2023-08-17T06:19:06.651Z,45.00
2023-08-17T06:21:34.775Z,47.10
2023-08-17T06:24:02.632Z,48.17
2023-08-17T06:26:30.680Z,48.40
2023-08-17T06:28:58.612Z,47.83
2023-08-17T06:31:28.670Z,48.73
2023-08-17T06:33:56.860Z,49.83
2023-08-17T06:36:24.842Z,47.70
2023-08-17T06:38:52.747Z,47.47
2023-08-17T06:41:20.914Z,51.20
2023-08-17T06:43:48.815Z,49.53
2023-08-17T06:46:16.788Z,50.00
2023-08-17T06:48:46.684Z,53.13
2023-08-17T06:51:14.566Z,49.47
2023-08-17T06:53:43.364Z,49.40
2023-08-17T06:56:11.968Z,48.23
2023-08-17T06:58:39.857Z,49.80
2023-08-17T07:01:08.041Z,49.43
2023-08-17T08:35:07.016Z,37.92
2023-08-17T08:37:34.909Z,40.00
2023-08-17T08:40:02.844Z,41.47
2023-08-17T08:42:30.929Z,42.10
2023-08-17T08:44:58.927Z,42.23
2023-08-17T08:47:28.356Z,43.13
2023-08-17T08:50:02.618Z,41.50
2023-08-17T08:52:35.971Z,41.73
2023-08-17T08:55:13.279Z,41.30
2023-08-17T08:57:42.793Z,41.27
2023-08-17T09:00:13.616Z,41.50
2023-08-17T09:02:41.711Z,41.27
2023-08-17T09:05:12.947Z,43.40
2023-08-17T09:07:41.417Z,40.13
2023-08-17T09:10:12.310Z,40.17
2023-08-17T09:12:42.176Z,39.87
2023-08-17T09:15:11.200Z,40.10
2023-08-17T09:17:39.932Z,40.40
2023-08-17T09:20:10.380Z,40.20
2023-08-17T09:22:43.687Z,40.50
2023-08-17T09:25:13.033Z,40.77
2023-08-17T09:27:42.329Z,40.40
2023-08-17T09:30:12.817Z,40.80
2023-08-17T09:32:41.038Z,41.23
2023-08-17T09:35:10.245Z,40.77
2023-08-17T09:37:38.375Z,41.67
2023-08-17T09:40:09.872Z,43.80
2023-08-17T09:42:38.081Z,43.23
2023-08-17T09:45:07.426Z,58.40
2023-08-17T18:56:56.680Z,52.72
2023-08-17T18:59:25.975Z,43.57
2023-08-17T19:01:53.912Z,43.77
2023-08-17T19:04:21.824Z,45.00
2023-08-17T19:06:49.765Z,44.80
2023-08-17T19:09:17.861Z,44.60
2023-08-17T19:11:46.214Z,42.90
2023-08-17T19:14:14.103Z,45.87
2023-08-17T19:16:43.461Z,50.50
2023-08-17T19:19:12.203Z,42.90
2023-08-17T19:21:40.141Z,44.10
2023-08-17T19:24:08.367Z,42.53
2023-08-17T19:26:36.227Z,41.90
2023-08-17T19:29:04.458Z,43.00
2023-08-17T19:31:33.077Z,41.50
2023-08-17T19:34:02.383Z,42.30
2023-08-17T19:36:30.344Z,41.23
2023-08-17T19:38:58.221Z,42.87
2023-08-17T19:41:26.102Z,41.10
2023-08-17T19:43:53.997Z,42.17
2023-08-17T19:46:21.958Z,42.60
2023-08-17T19:48:50.751Z,41.57
2023-08-17T19:51:20.005Z,42.00
2023-08-17T19:53:48.121Z,43.50
2023-08-17T19:56:16.192Z,41.13
2023-08-17T19:58:44.050Z,42.83
2023-08-17T20:01:12.988Z,42.50
2023-08-17T20:03:41.394Z,41.77
2023-08-17T20:06:10.225Z,43.50
2023-08-17T20:08:39.794Z,42.17
